sensor_id;sensor_type;location;lat;lon;timestamp;pressure;altitude;pressure_sealevel;temperature;humidity
12213;BME280;6169;44.158;22.788;2023-02-13T00:04:08;103130.88;;;3.57;50.24
12213;BME280;6169;44.158;22.788;2023-02-13T00:09:10;103142.41;;;3.70;49.06
12213;BME280;6169;44.158;22.788;2023-02-13T00:14:12;103152.22;;;3.34;50.79
12213;BME280;6169;44.158;22.788;2023-02-13T00:19:16;103152.00;;;3.37;50.42
12213;BME280;6169;44.158;22.788;2023-02-13T00:24:18;103154.38;;;3.29;51.51
12213;BME280;6169;44.158;22.788;2023-02-13T00:29:21;103161.47;;;3.30;52.30
12213;BME280;6169;44.158;22.788;2023-02-13T00:34:24;103154.44;;;3.41;53.59
12213;BME280;6169;44.158;22.788;2023-02-13T00:39:27;103155.09;;;3.44;52.83
12213;BME280;6169;44.158;22.788;2023-02-13T00:44:29;103147.72;;;3.35;52.69
12213;BME280;6169;44.158;22.788;2023-02-13T00:49:33;103140.09;;;3.05;54.14
12213;BME280;6169;44.158;22.788;2023-02-13T00:54:35;103121.44;;;3.16;54.72
12213;BME280;6169;44.158;22.788;2023-02-13T00:59:37;103138.59;;;3.37;55.90
12213;BME280;6169;44.158;22.788;2023-02-13T01:04:41;103132.00;;;3.30;55.13
12213;BME280;6169;44.158;22.788;2023-02-13T01:09:43;103137.19;;;3.45;54.60
12213;BME280;6169;44.158;22.788;2023-02-13T01:14:45;103146.81;;;3.47;53.54
12213;BME280;6169;44.158;22.788;2023-02-13T01:19:49;103145.44;;;3.42;54.78
12213;BME280;6169;44.158;22.788;2023-02-13T01:24:51;102959.69;;;2.46;53.05
12213;BME280;6169;44.158;22.788;2023-02-13T01:29:53;103149.59;;;3.22;53.26
12213;BME280;6169;44.158;22.788;2023-02-13T01:34:57;103143.47;;;3.20;53.97
12213;BME280;6169;44.158;22.788;2023-02-13T01:39:59;103142.63;;;3.19;53.61
12213;BME280;6169;44.158;22.788;2023-02-13T01:45:03;103129.31;;;3.30;54.72
12213;BME280;6169;44.158;22.788;2023-02-13T01:50:10;103141.09;;;3.52;55.17
12213;BME280;6169;44.158;22.788;2023-02-13T01:55:14;103137.56;;;3.51;53.56
12213;BME280;6169;44.158;22.788;2023-02-13T02:00:18;103141.47;;;3.47;52.65
12213;BME280;6169;44.158;22.788;2023-02-13T02:05:23;103147.19;;;3.78;54.41
12213;BME280;6169;44.158;22.788;2023-02-13T02:10:28;103142.47;;;3.57;54.26
12213;BME280;6169;44.158;22.788;2023-02-13T02:15:32;103142.88;;;3.40;54.11
12213;BME280;6169;44.158;22.788;2023-02-13T02:20:55;103148.34;;;3.63;53.47
12213;BME280;6169;44.158;22.788;2023-02-13T02:26:33;103156.56;;;3.11;55.13
12213;BME280;6169;44.158;22.788;2023-02-13T02:32:10;103155.41;;;3.40;53.80
12213;BME280;6169;44.158;22.788;2023-02-13T02:37:26;103156.63;;;3.23;52.94
12213;BME280;6169;44.158;22.788;2023-02-13T02:42:35;103155.53;;;3.62;52.21
12213;BME280;6169;44.158;22.788;2023-02-13T02:47:49;103151.09;;;3.26;51.96
12213;BME280;6169;44.158;22.788;2023-02-13T02:53:17;103147.31;;;3.15;52.63
12213;BME280;6169;44.158;22.788;2023-02-13T02:58:30;103135.00;;;2.76;53.08
12213;BME280;6169;44.158;22.788;2023-02-13T03:03:54;103146.53;;;3.02;52.58
12213;BME280;6169;44.158;22.788;2023-02-13T03:09:18;103149.00;;;2.92;52.01
12213;BME280;6169;44.158;22.788;2023-02-13T03:14:39;103160.78;;;2.90;52.08
12213;BME280;6169;44.158;22.788;2023-02-13T03:19:54;103164.94;;;3.07;52.56
12213;BME280;6169;44.158;22.788;2023-02-13T03:25:20;103173.63;;;2.98;51.84
12213;BME280;6169;44.158;22.788;2023-02-13T03:30:40;103172.78;;;2.97;51.98
12213;BME280;6169;44.158;22.788;2023-02-13T03:35:55;103178.50;;;2.80;51.37
12213;BME280;6169;44.158;22.788;2023-02-13T03:41:20;103173.50;;;2.62;52.32
12213;BME280;6169;44.158;22.788;2023-02-13T03:46:26;103168.91;;;2.52;52.11
12213;BME280;6169;44.158;22.788;2023-02-13T03:51:34;103178.41;;;2.56;52.25
12213;BME280;6169;44.158;22.788;2023-02-13T03:56:39;103177.91;;;2.38;52.59
12213;BME280;6169;44.158;22.788;2023-02-13T04:02:04;103171.09;;;2.70;53.03
12213;BME280;6169;44.158;22.788;2023-02-13T04:07:12;103168.69;;;2.55;52.89
12213;BME280;6169;44.158;22.788;2023-02-13T04:12:36;103169.97;;;2.49;53.82
12213;BME280;6169;44.158;22.788;2023-02-13T04:17:42;103174.13;;;2.66;52.30
12213;BME280;6169;44.158;22.788;2023-02-13T04:22:48;103174.63;;;2.84;53.49
12213;BME280;6169;44.158;22.788;2023-02-13T04:27:50;103168.06;;;3.01;53.48
12213;BME280;6169;44.158;22.788;2023-02-13T04:32:52;103177.66;;;2.79;52.18
12213;BME280;6169;44.158;22.788;2023-02-13T04:37:56;103175.53;;;2.46;53.40
12213;BME280;6169;44.158;22.788;2023-02-13T04:42:59;103179.16;;;2.58;53.41
12213;BME280;6169;44.158;22.788;2023-02-13T04:48:01;103193.31;;;2.60;53.36
12213;BME280;6169;44.158;22.788;2023-02-13T04:53:05;103191.66;;;2.70;52.27
12213;BME280;6169;44.158;22.788;2023-02-13T04:58:07;103179.81;;;2.74;53.40
12213;BME280;6169;44.158;22.788;2023-02-13T05:03:11;103183.81;;;2.92;52.80
12213;BME280;6169;44.158;22.788;2023-02-13T05:08:15;103177.66;;;2.79;53.42
12213;BME280;6169;44.158;22.788;2023-02-13T05:13:17;103178.94;;;2.74;53.13
12213;BME280;6169;44.158;22.788;2023-02-13T05:18:21;103157.31;;;2.77;53.08
12213;BME280;6169;44.158;22.788;2023-02-13T05:23:24;103188.69;;;2.62;55.18
12213;BME280;6169;44.158;22.788;2023-02-13T05:28:27;103193.50;;;2.69;55.81
12213;BME280;6169;44.158;22.788;2023-02-13T05:33:47;103194.13;;;2.73;55.90
12213;BME280;6169;44.158;22.788;2023-02-13T05:38:50;103199.34;;;2.87;54.57
12213;BME280;6169;44.158;22.788;2023-02-13T05:43:52;103196.25;;;2.81;54.71
12213;BME280;6169;44.158;22.788;2023-02-13T05:48:55;103160.31;;;2.72;54.07
12213;BME280;6169;44.158;22.788;2023-02-13T05:53:58;103196.41;;;3.16;53.96
12213;BME280;6169;44.158;22.788;2023-02-13T05:59:01;103211.84;;;3.25;53.44
12213;BME280;6169;44.158;22.788;2023-02-13T06:04:03;103218.59;;;3.31;52.80
12213;BME280;6169;44.158;22.788;2023-02-13T06:09:07;103208.72;;;3.31;53.30
12213;BME280;6169;44.158;22.788;2023-02-13T06:14:10;103212.91;;;3.35;53.38
12213;BME280;6169;44.158;22.788;2023-02-13T06:19:13;103201.06;;;3.38;52.20
12213;BME280;6169;44.158;22.788;2023-02-13T06:24:17;103202.66;;;3.41;54.72
12213;BME280;6169;44.158;22.788;2023-02-13T06:29:19;103203.06;;;3.71;55.71
12213;BME280;6169;44.158;22.788;2023-02-13T06:34:21;103209.03;;;3.99;55.30
12213;BME280;6169;44.158;22.788;2023-02-13T06:39:25;103215.69;;;4.17;56.08
12213;BME280;6169;44.158;22.788;2023-02-13T06:44:27;103211.72;;;4.45;54.78
12213;BME280;6169;44.158;22.788;2023-02-13T06:49:29;103215.41;;;4.78;55.60
12213;BME280;6169;44.158;22.788;2023-02-13T06:54:33;103222.50;;;4.90;54.98
12213;BME280;6169;44.158;22.788;2023-02-13T06:59:35;103215.25;;;5.36;54.07
12213;BME280;6169;44.158;22.788;2023-02-13T07:04:37;103221.84;;;5.32;55.15
12213;BME280;6169;44.158;22.788;2023-02-13T07:09:41;103217.72;;;5.60;54.79
12213;BME280;6169;44.158;22.788;2023-02-13T07:14:43;103215.19;;;5.70;55.62
12213;BME280;6169;44.158;22.788;2023-02-13T07:19:45;103227.06;;;5.88;55.72
12213;BME280;6169;44.158;22.788;2023-02-13T07:24:49;103223.91;;;5.83;56.73
12213;BME280;6169;44.158;22.788;2023-02-13T07:29:51;103228.84;;;6.31;55.12
12213;BME280;6169;44.158;22.788;2023-02-13T07:34:55;103217.09;;;6.00;56.63
12213;BME280;6169;44.158;22.788;2023-02-13T07:39:58;103214.19;;;6.24;55.67
12213;BME280;6169;44.158;22.788;2023-02-13T07:45:00;103215.66;;;6.59;54.98
12213;BME280;6169;44.158;22.788;2023-02-13T07:50:06;103213.03;;;6.47;55.03
12213;BME280;6169;44.158;22.788;2023-02-13T07:55:10;103198.44;;;6.71;54.54
12213;BME280;6169;44.158;22.788;2023-02-13T08:00:13;103189.25;;;6.73;54.65
12213;BME280;6169;44.158;22.788;2023-02-13T08:05:16;103195.00;;;6.38;56.58
12213;BME280;6169;44.158;22.788;2023-02-13T08:10:20;103187.41;;;6.74;55.29
12213;BME280;6169;44.158;22.788;2023-02-13T08:15:39;103192.16;;;6.61;54.24
12213;BME280;6169;44.158;22.788;2023-02-13T08:20:44;103186.13;;;7.28;52.32
12213;BME280;6169;44.158;22.788;2023-02-13T08:25:47;103189.44;;;7.42;51.92
12213;BME280;6169;44.158;22.788;2023-02-13T08:30:49;103186.84;;;7.30;51.78
12213;BME280;6169;44.158;22.788;2023-02-13T08:35:51;103183.34;;;7.49;51.24
12213;BME280;6169;44.158;22.788;2023-02-13T08:40:57;103193.88;;;7.91;48.85
12213;BME280;6169;44.158;22.788;2023-02-13T08:45:59;103193.22;;;8.46;47.06
12213;BME280;6169;44.158;22.788;2023-02-13T08:51:05;103191.00;;;8.22;46.18
12213;BME280;6169;44.158;22.788;2023-02-13T08:56:09;103164.47;;;8.45;45.17
12213;BME280;6169;44.158;22.788;2023-02-13T09:01:11;103187.00;;;9.01;42.87
12213;BME280;6169;44.158;22.788;2023-02-13T09:06:13;103185.16;;;9.01;43.28
12213;BME280;6169;44.158;22.788;2023-02-13T09:11:17;103177.31;;;9.08;40.29
12213;BME280;6169;44.158;22.788;2023-02-13T09:16:22;103174.81;;;8.96;39.76
12213;BME280;6169;44.158;22.788;2023-02-13T09:21:24;103170.53;;;9.49;39.21
12213;BME280;6169;44.158;22.788;2023-02-13T09:26:28;103165.41;;;9.64;37.93
12213;BME280;6169;44.158;22.788;2023-02-13T09:31:30;103169.88;;;9.73;39.41
12213;BME280;6169;44.158;22.788;2023-02-13T09:36:32;103162.53;;;9.83;37.27
12213;BME280;6169;44.158;22.788;2023-02-13T09:41:39;103166.38;;;10.25;37.70
12213;BME280;6169;44.158;22.788;2023-02-13T09:46:42;103156.63;;;9.88;33.63
12213;BME280;6169;44.158;22.788;2023-02-13T09:51:49;103148.22;;;10.43;33.20
12213;BME280;6169;44.158;22.788;2023-02-13T09:56:58;103145.16;;;10.12;33.46
12213;BME280;6169;44.158;22.788;2023-02-13T10:02:09;103135.16;;;10.39;33.50
12213;BME280;6169;44.158;22.788;2023-02-13T10:07:20;103125.50;;;10.62;33.99
12213;BME280;6169;44.158;22.788;2023-02-13T10:12:42;103126.59;;;10.51;33.09
12213;BME280;6169;44.158;22.788;2023-02-13T10:17:53;103118.69;;;10.58;34.17
12213;BME280;6169;44.158;22.788;2023-02-13T10:23:01;103113.84;;;10.78;33.17
12213;BME280;6169;44.158;22.788;2023-02-13T10:28:11;103099.44;;;10.43;32.10
12213;BME280;6169;44.158;22.788;2023-02-13T10:33:18;103100.81;;;10.47;32.20
12213;BME280;6169;44.158;22.788;2023-02-13T10:38:22;103090.56;;;11.10;32.66
12213;BME280;6169;44.158;22.788;2023-02-13T10:43:27;103077.00;;;11.34;31.89
12213;BME280;6169;44.158;22.788;2023-02-13T10:48:46;103072.41;;;11.02;32.32
12213;BME280;6169;44.158;22.788;2023-02-13T10:53:59;103067.84;;;11.52;30.79
12213;BME280;6169;44.158;22.788;2023-02-13T10:59:29;103052.72;;;11.65;31.06
12213;BME280;6169;44.158;22.788;2023-02-13T11:04:35;103049.53;;;11.62;30.92
12213;BME280;6169;44.158;22.788;2023-02-13T11:09:40;103047.47;;;11.80;30.04
12213;BME280;6169;44.158;22.788;2023-02-13T11:14:52;103030.38;;;12.27;27.50
12213;BME280;6169;44.158;22.788;2023-02-13T11:19:57;103011.31;;;11.88;29.98
12213;BME280;6169;44.158;22.788;2023-02-13T11:25:04;103026.06;;;12.72;28.37
12213;BME280;6169;44.158;22.788;2023-02-13T11:30:29;103010.50;;;12.58;28.51
12213;BME280;6169;44.158;22.788;2023-02-13T11:35:34;102967.38;;;11.84;28.43
12213;BME280;6169;44.158;22.788;2023-02-13T11:40:37;102996.50;;;12.69;28.21
12213;BME280;6169;44.158;22.788;2023-02-13T11:45:42;102980.38;;;12.68;27.13
12213;BME280;6169;44.158;22.788;2023-02-13T11:50:50;102981.22;;;12.91;27.02
12213;BME280;6169;44.158;22.788;2023-02-13T11:56:03;102970.50;;;12.98;26.56
12213;BME280;6169;44.158;22.788;2023-02-13T12:01:26;102956.38;;;13.17;25.83
12213;BME280;6169;44.158;22.788;2023-02-13T12:06:29;102950.78;;;13.34;24.71
12213;BME280;6169;44.158;22.788;2023-02-13T12:11:43;102947.50;;;12.77;24.82
12213;BME280;6169;44.158;22.788;2023-02-13T12:16:50;102935.13;;;13.36;24.85
12213;BME280;6169;44.158;22.788;2023-02-13T12:22:13;102924.31;;;13.57;25.02
12213;BME280;6169;44.158;22.788;2023-02-13T12:27:22;102910.91;;;13.56;25.06
12213;BME280;6169;44.158;22.788;2023-02-13T12:32:40;102909.88;;;13.72;24.15
12213;BME280;6169;44.158;22.788;2023-02-13T12:37:55;102901.97;;;13.77;24.58
12213;BME280;6169;44.158;22.788;2023-02-13T12:43:12;102885.75;;;13.39;24.11
12213;BME280;6169;44.158;22.788;2023-02-13T12:48:28;102894.03;;;13.60;24.47
12213;BME280;6169;44.158;22.788;2023-02-13T12:53:49;102890.44;;;13.15;24.40
12213;BME280;6169;44.158;22.788;2023-02-13T12:59:04;102880.47;;;13.23;24.20
12213;BME280;6169;44.158;22.788;2023-02-13T13:04:16;102880.94;;;13.71;24.49
12213;BME280;6169;44.158;22.788;2023-02-13T13:09:46;102882.56;;;13.35;23.75
12213;BME280;6169;44.158;22.788;2023-02-13T13:14:55;102874.00;;;13.83;24.25
12213;BME280;6169;44.158;22.788;2023-02-13T13:20:24;102876.44;;;13.63;23.91
12213;BME280;6169;44.158;22.788;2023-02-13T13:25:37;102868.00;;;13.73;23.67
12213;BME280;6169;44.158;22.788;2023-02-13T13:30:44;102861.34;;;13.60;24.05
12213;BME280;6169;44.158;22.788;2023-02-13T13:35:54;102854.03;;;12.79;25.30
12213;BME280;6169;44.158;22.788;2023-02-13T13:41:07;102845.38;;;13.42;24.86
12213;BME280;6169;44.158;22.788;2023-02-13T13:46:15;102845.06;;;12.93;25.10
12213;BME280;6169;44.158;22.788;2023-02-13T13:51:20;102847.69;;;13.75;25.12
12213;BME280;6169;44.158;22.788;2023-02-13T13:56:23;102840.88;;;13.05;25.43
12213;BME280;6169;44.158;22.788;2023-02-13T14:01:26;102837.03;;;13.14;25.73
12213;BME280;6169;44.158;22.788;2023-02-13T14:12:43;102824.38;;;12.46;26.68
12213;BME280;6169;44.158;22.788;2023-02-13T14:17:52;102833.28;;;12.40;26.69
12213;BME280;6169;44.158;22.788;2023-02-13T14:22:54;102833.63;;;12.60;26.75
12213;BME280;6169;44.158;22.788;2023-02-13T14:28:00;102830.53;;;12.63;27.07
12213;BME280;6169;44.158;22.788;2023-02-13T14:33:06;102832.03;;;12.65;27.42
12213;BME280;6169;44.158;22.788;2023-02-13T14:38:22;102826.31;;;12.37;28.05
12213;BME280;6169;44.158;22.788;2023-02-13T14:43:36;102831.81;;;12.52;28.31
12213;BME280;6169;44.158;22.788;2023-02-13T14:48:42;102824.63;;;12.59;29.48
12213;BME280;6169;44.158;22.788;2023-02-13T14:53:50;102823.94;;;12.57;28.87
12213;BME280;6169;44.158;22.788;2023-02-13T14:59:00;102827.25;;;11.98;30.05
12213;BME280;6169;44.158;22.788;2023-02-13T15:04:11;102823.94;;;11.80;30.73
12213;BME280;6169;44.158;22.788;2023-02-13T15:09:20;102816.31;;;11.44;31.20
12213;BME280;6169;44.158;22.788;2023-02-13T15:14:30;102821.91;;;11.42;31.69
12213;BME280;6169;44.158;22.788;2023-02-13T15:19:35;102781.19;;;11.42;32.72
12213;BME280;6169;44.158;22.788;2023-02-13T15:24:44;102813.53;;;11.21;33.29
12213;BME280;6169;44.158;22.788;2023-02-13T15:29:57;102822.41;;;10.82;32.81
12213;BME280;6169;44.158;22.788;2023-02-13T15:35:00;102827.63;;;10.35;32.29
12213;BME280;6169;44.158;22.788;2023-02-13T15:40:18;102827.13;;;10.23;32.76
12213;BME280;6169;44.158;22.788;2023-02-13T15:45:26;102819.00;;;10.23;32.29
12213;BME280;6169;44.158;22.788;2023-02-13T15:50:30;102834.81;;;9.85;31.87
12213;BME280;6169;44.158;22.788;2023-02-13T15:55:34;102822.38;;;9.58;32.51
12213;BME280;6169;44.158;22.788;2023-02-13T16:00:41;102816.06;;;9.41;32.94
12213;BME280;6169;44.158;22.788;2023-02-13T16:05:44;102818.50;;;9.60;31.79
12213;BME280;6169;44.158;22.788;2023-02-13T16:10:48;102817.97;;;9.23;32.73
12213;BME280;6169;44.158;22.788;2023-02-13T16:15:51;102816.13;;;9.23;33.55
12213;BME280;6169;44.158;22.788;2023-02-13T16:20:54;102823.75;;;9.28;34.05
12213;BME280;6169;44.158;22.788;2023-02-13T16:26:00;102821.00;;;8.49;35.30
12213;BME280;6169;44.158;22.788;2023-02-13T16:31:06;102818.13;;;8.95;35.78
12213;BME280;6169;44.158;22.788;2023-02-13T16:36:28;102814.69;;;8.41;36.62
12213;BME280;6169;44.158;22.788;2023-02-13T16:41:32;102811.63;;;8.62;36.80
12213;BME280;6169;44.158;22.788;2023-02-13T16:46:36;102792.19;;;8.58;36.25
12213;BME280;6169;44.158;22.788;2023-02-13T16:51:41;102807.69;;;8.74;36.64
12213;BME280;6169;44.158;22.788;2023-02-13T16:56:46;102810.72;;;8.53;36.89
12213;BME280;6169;44.158;22.788;2023-02-13T17:02:12;102815.13;;;8.36;37.79
12213;BME280;6169;44.158;22.788;2023-02-13T17:07:18;102816.06;;;8.27;38.41
12213;BME280;6169;44.158;22.788;2023-02-13T17:12:21;102823.56;;;8.51;38.70
12213;BME280;6169;44.158;22.788;2023-02-13T17:17:26;102819.94;;;8.24;39.71
12213;BME280;6169;44.158;22.788;2023-02-13T17:22:35;102818.00;;;8.17;39.85
12213;BME280;6169;44.158;22.788;2023-02-13T17:27:38;102821.31;;;8.28;39.81
12213;BME280;6169;44.158;22.788;2023-02-13T17:32:44;102816.75;;;8.47;39.79
12213;BME280;6169;44.158;22.788;2023-02-13T17:37:46;102810.31;;;7.76;41.10
12213;BME280;6169;44.158;22.788;2023-02-13T17:42:51;102801.97;;;8.15;41.13
12213;BME280;6169;44.158;22.788;2023-02-13T17:47:55;102808.88;;;8.00;41.63
12213;BME280;6169;44.158;22.788;2023-02-13T17:53:00;102798.06;;;7.54;43.02
12213;BME280;6169;44.158;22.788;2023-02-13T17:58:04;102807.97;;;7.36;44.10
12213;BME280;6169;44.158;22.788;2023-02-13T18:03:07;102799.53;;;7.11;44.59
12213;BME280;6169;44.158;22.788;2023-02-13T18:08:12;102794.25;;;7.20;44.76
12213;BME280;6169;44.158;22.788;2023-02-13T18:13:14;102643.88;;;6.11;45.30
12213;BME280;6169;44.158;22.788;2023-02-13T18:18:17;102773.97;;;7.43;44.79
12213;BME280;6169;44.158;22.788;2023-02-13T18:23:20;102783.72;;;7.54;44.45
12213;BME280;6169;44.158;22.788;2023-02-13T18:28:22;102791.75;;;7.73;44.10
12213;BME280;6169;44.158;22.788;2023-02-13T18:33:25;102797.22;;;7.81;44.10
12213;BME280;6169;44.158;22.788;2023-02-13T18:38:28;102787.81;;;7.68;44.53
12213;BME280;6169;44.158;22.788;2023-02-13T18:43:30;102782.50;;;7.11;45.95
12213;BME280;6169;44.158;22.788;2023-02-13T18:48:34;102787.72;;;7.22;45.82
12213;BME280;6169;44.158;22.788;2023-02-13T18:53:37;102785.28;;;7.29;45.82
12213;BME280;6169;44.158;22.788;2023-02-13T18:58:39;102751.44;;;7.44;45.31
12213;BME280;6169;44.158;22.788;2023-02-13T19:03:43;102772.47;;;7.68;44.86
12213;BME280;6169;44.158;22.788;2023-02-13T19:08:46;102768.03;;;7.49;45.50
12213;BME280;6169;44.158;22.788;2023-02-13T19:13:52;102764.72;;;7.55;45.56
12213;BME280;6169;44.158;22.788;2023-02-13T19:18:58;102755.47;;;7.30;45.90
12213;BME280;6169;44.158;22.788;2023-02-13T19:24:02;102762.34;;;7.43;45.96
12213;BME280;6169;44.158;22.788;2023-02-13T19:29:04;102751.66;;;7.60;45.75
12213;BME280;6169;44.158;22.788;2023-02-13T19:34:08;102750.44;;;7.73;45.49
12213;BME280;6169;44.158;22.788;2023-02-13T19:39:10;102747.03;;;7.43;46.05
12213;BME280;6169;44.158;22.788;2023-02-13T19:44:12;102753.63;;;7.31;46.89
12213;BME280;6169;44.158;22.788;2023-02-13T19:49:17;102748.66;;;7.81;45.52
12213;BME280;6169;44.158;22.788;2023-02-13T19:54:22;102748.53;;;7.55;46.95
12213;BME280;6169;44.158;22.788;2023-02-13T19:59:26;102743.34;;;7.44;46.81
12213;BME280;6169;44.158;22.788;2023-02-13T20:04:30;102735.28;;;7.34;47.93
12213;BME280;6169;44.158;22.788;2023-02-13T20:09:37;102747.50;;;7.38;47.76
12213;BME280;6169;44.158;22.788;2023-02-13T20:14:41;102742.69;;;7.60;47.69
12213;BME280;6169;44.158;22.788;2023-02-13T20:19:45;102746.50;;;7.67;47.59
12213;BME280;6169;44.158;22.788;2023-02-13T20:24:48;102740.66;;;7.72;47.39
12213;BME280;6169;44.158;22.788;2023-02-13T20:29:51;102739.41;;;8.02;46.70
12213;BME280;6169;44.158;22.788;2023-02-13T20:34:55;102734.88;;;7.29;48.51
12213;BME280;6169;44.158;22.788;2023-02-13T20:39:58;102725.84;;;7.21;48.74
12213;BME280;6169;44.158;22.788;2023-02-13T20:45:00;102721.59;;;7.73;47.39
12213;BME280;6169;44.158;22.788;2023-02-13T20:50:05;102726.06;;;7.37;48.30
12213;BME280;6169;44.158;22.788;2023-02-13T20:55:07;102728.53;;;7.58;47.54
12213;BME280;6169;44.158;22.788;2023-02-13T21:00:11;102720.94;;;7.44;47.73
12213;BME280;6169;44.158;22.788;2023-02-13T21:05:15;102713.31;;;7.29;48.27
12213;BME280;6169;44.158;22.788;2023-02-13T21:10:18;102704.88;;;7.42;48.10
12213;BME280;6169;44.158;22.788;2023-02-13T21:15:20;102702.41;;;7.58;47.61
12213;BME280;6169;44.158;22.788;2023-02-13T21:20:24;102689.97;;;8.01;46.54
12213;BME280;6169;44.158;22.788;2023-02-13T21:25:26;102684.91;;;8.42;44.87
12213;BME280;6169;44.158;22.788;2023-02-13T21:30:28;102695.38;;;7.66;46.47
12213;BME280;6169;44.158;22.788;2023-02-13T21:35:32;102681.28;;;7.26;47.27
12213;BME280;6169;44.158;22.788;2023-02-13T21:40:34;102676.69;;;6.81;48.74
12213;BME280;6169;44.158;22.788;2023-02-13T21:45:36;102674.31;;;7.06;48.43
12213;BME280;6169;44.158;22.788;2023-02-13T21:50:40;102650.50;;;7.01;49.71
12213;BME280;6169;44.158;22.788;2023-02-13T21:55:42;102662.69;;;7.51;48.86
12213;BME280;6169;44.158;22.788;2023-02-13T22:00:44;102666.84;;;7.45;49.29
12213;BME280;6169;44.158;22.788;2023-02-13T22:05:47;102672.72;;;7.76;48.77
12213;BME280;6169;44.158;22.788;2023-02-13T22:10:53;102666.00;;;7.98;47.56
12213;BME280;6169;44.158;22.788;2023-02-13T22:15:59;102675.44;;;7.49;49.05
12213;BME280;6169;44.158;22.788;2023-02-13T22:21:07;102672.00;;;7.56;49.45
12213;BME280;6169;44.158;22.788;2023-02-13T22:26:14;102666.84;;;7.99;48.40
12213;BME280;6169;44.158;22.788;2023-02-13T22:31:17;102668.72;;;7.80;49.18
12213;BME280;6169;44.158;22.788;2023-02-13T22:36:22;102664.94;;;7.73;49.55
12213;BME280;6169;44.158;22.788;2023-02-13T22:41:25;102668.56;;;7.64;49.86
12213;BME280;6169;44.158;22.788;2023-02-13T22:46:29;102666.84;;;7.99;48.92
12213;BME280;6169;44.158;22.788;2023-02-13T22:51:35;102662.56;;;7.70;49.58
12213;BME280;6169;44.158;22.788;2023-02-13T22:56:37;102660.63;;;7.62;50.16
12213;BME280;6169;44.158;22.788;2023-02-13T23:01:40;102661.47;;;7.63;50.45
12213;BME280;6169;44.158;22.788;2023-02-13T23:06:43;102662.66;;;7.60;50.50
12213;BME280;6169;44.158;22.788;2023-02-13T23:11:45;102659.44;;;7.83;49.82
12213;BME280;6169;44.158;22.788;2023-02-13T23:17:05;102657.66;;;8.36;47.78
12213;BME280;6169;44.158;22.788;2023-02-13T23:22:26;102658.78;;;7.63;49.86
12213;BME280;6169;44.158;22.788;2023-02-13T23:27:28;102655.81;;;7.38;50.85
12213;BME280;6169;44.158;22.788;2023-02-13T23:32:30;102666.78;;;7.55;50.49
12213;BME280;6169;44.158;22.788;2023-02-13T23:37:34;102660.22;;;7.93;49.68
12213;BME280;6169;44.158;22.788;2023-02-13T23:42:36;102663.97;;;8.18;48.42
12213;BME280;6169;44.158;22.788;2023-02-13T23:47:38;102669.03;;;7.77;49.32
12213;BME280;6169;44.158;22.788;2023-02-13T23:52:42;102662.78;;;7.95;48.82
12213;BME280;6169;44.158;22.788;2023-02-13T23:57:45;102659.44;;;7.47;50.67
